createdAt,value
2019-04-10T00:02:17.590Z,98637.16
2019-04-10T00:04:48.100Z,98636.33
2019-04-10T00:07:19.832Z,98630.59
2019-04-10T00:09:51.682Z,98634.96
2019-04-10T00:12:23.157Z,98633.63
2019-04-10T00:14:53.762Z,98638.52
2019-04-10T00:17:24.991Z,98636.37
2019-04-10T00:19:56.027Z,98642.31
2019-04-10T00:22:26.554Z,98643.16
2019-04-10T00:24:57.039Z,98645.32
2019-04-10T00:27:28.389Z,98647.20
2019-04-10T00:29:58.883Z,98644.76
2019-04-10T00:32:29.972Z,98641.77
2019-04-10T00:35:00.490Z,98648.55
2019-04-10T00:37:32.403Z,98642.33
2019-04-10T00:40:03.416Z,98644.48
2019-04-10T00:42:34.809Z,98648.84
2019-04-10T00:45:05.852Z,98649.38
2019-04-10T00:47:37.439Z,98645.58
2019-04-10T00:50:08.517Z,98641.50
2019-04-10T00:52:38.964Z,98640.98
2019-04-10T00:55:09.551Z,98640.95
2019-04-10T00:57:39.978Z,98639.88
2019-04-10T01:00:10.795Z,98637.14
2019-04-10T01:02:41.234Z,98639.38
2019-04-10T01:05:11.808Z,98634.70
2019-04-10T01:07:44.155Z,98637.70
2019-04-10T01:10:14.687Z,98636.34
2019-04-10T01:12:45.993Z,98638.02
2019-04-10T01:15:16.466Z,98636.11
2019-04-10T01:17:46.960Z,98639.64
2019-04-10T01:20:17.660Z,98633.67
2019-04-10T01:22:48.128Z,98638.55
2019-04-10T01:25:18.724Z,98635.85
2019-04-10T01:27:50.041Z,98635.84
2019-04-10T01:30:20.656Z,98639.66
2019-04-10T01:32:52.237Z,98639.37
2019-04-10T01:35:22.764Z,98633.69
2019-04-10T01:37:57.856Z,98637.19
2019-04-10T01:40:25.387Z,98632.05
2019-04-10T01:43:09.871Z,98633.41
2019-04-10T01:45:27.993Z,98630.14
2019-04-10T01:47:59.510Z,98630.97
2019-04-10T01:50:32.584Z,98635.30
2019-04-10T01:53:03.754Z,98632.59
2019-04-10T01:55:35.598Z,98633.41
2019-04-10T01:58:10.583Z,98636.95
2019-04-10T02:00:44.028Z,98629.88
2019-04-10T02:03:16.900Z,98633.12
2019-04-10T02:05:49.186Z,98626.08
2019-04-10T02:08:19.661Z,98627.70
2019-04-10T02:10:50.225Z,98624.72
2019-04-10T02:13:20.648Z,98622.01
2019-04-10T02:15:51.131Z,98624.19
2019-04-10T02:18:21.585Z,98629.07
2019-04-10T02:20:52.110Z,98629.34
2019-04-10T02:23:22.636Z,98628.53
2019-04-10T02:25:53.125Z,98626.91
2019-04-10T02:28:23.824Z,98628.24
2019-04-10T02:30:54.652Z,98628.53
2019-04-10T02:33:25.480Z,98621.73
2019-04-10T02:35:57.140Z,98630.14
2019-04-10T02:38:47.791Z,98626.08
2019-04-10T02:41:01.540Z,98634.50
2019-04-10T02:43:33.571Z,98647.80
2019-04-10T02:46:04.670Z,98642.36
2019-04-10T02:48:36.354Z,98646.43
2019-04-10T02:51:07.724Z,98649.98
2019-04-10T02:53:39.310Z,98646.98
2019-04-10T02:56:11.216Z,98646.17
2019-04-10T02:58:42.688Z,98647.55
2019-04-10T03:01:13.535Z,98641.56
2019-04-10T03:03:44.643Z,98642.92
2019-04-10T03:06:15.595Z,98644.81
2019-04-10T03:09:05.931Z,98645.90
2019-04-10T03:11:20.109Z,98643.73
2019-04-10T03:13:51.191Z,98644.53
2019-04-10T03:16:21.829Z,98648.88
2019-04-10T03:18:52.938Z,98654.59
2019-04-10T03:21:23.533Z,98652.15
2019-04-10T03:23:54.022Z,98649.44
2019-04-10T03:26:25.628Z,98650.25
2019-04-10T03:28:56.099Z,98652.95
2019-04-10T03:31:27.779Z,98658.67
2019-04-10T03:34:08.108Z,98659.20
2019-04-10T03:36:38.154Z,98663.28
2019-04-10T03:39:10.629Z,98661.09
2019-04-10T03:41:42.194Z,98665.44
2019-04-10T03:44:16.571Z,98669.81
2019-04-10T03:46:47.131Z,98668.71
2019-04-10T03:49:17.850Z,98670.61
2019-04-10T03:51:49.179Z,98671.17
2019-04-10T03:54:20.719Z,98677.13
2019-04-10T03:56:51.155Z,98677.94
2019-04-10T03:59:22.365Z,98680.66
2019-04-10T04:01:53.441Z,98681.73
2019-04-10T04:04:23.914Z,98683.92
2019-04-10T04:06:54.343Z,98688.52
2019-04-10T04:09:24.783Z,98688.80
2019-04-10T04:11:55.843Z,98685.27
2019-04-10T04:14:26.422Z,98683.60
2019-04-10T04:16:57.776Z,98684.44
2019-04-10T04:19:34.589Z,98687.42
2019-04-10T04:22:06.112Z,98692.32
2019-04-10T04:24:36.749Z,98694.50
2019-04-10T04:27:08.970Z,98692.86
2019-04-10T04:29:41.369Z,98693.95
2019-04-10T04:32:11.831Z,98690.43
2019-04-10T04:34:43.252Z,98693.15
2019-04-10T04:37:13.847Z,98698.30
2019-04-10T04:39:45.325Z,98702.66
2019-04-10T04:42:16.939Z,98699.93
2019-04-10T04:44:47.844Z,98704.27
2019-04-10T04:47:18.379Z,98699.39
2019-04-10T04:49:54.805Z,98701.03
2019-04-10T04:52:25.855Z,98701.03
2019-04-10T04:54:57.168Z,98703.19
2019-04-10T04:57:28.796Z,98701.86
2019-04-10T04:59:59.321Z,98707.00
2019-04-10T05:02:32.362Z,98708.38
2019-04-10T05:05:02.813Z,98710.28
2019-04-10T05:07:33.412Z,98713.81
2019-04-10T05:10:06.934Z,98724.92
2019-04-10T05:12:40.894Z,98727.09
2019-04-10T05:15:10.916Z,98724.67
2019-04-10T05:17:45.163Z,98726.85
2019-04-10T05:20:21.809Z,98726.01
2019-04-10T05:22:54.489Z,98726.82
2019-04-10T05:25:29.452Z,98736.33
2019-04-10T05:28:07.843Z,98732.55
2019-04-10T05:30:41.169Z,98734.70
2019-04-10T05:33:12.047Z,98731.18
2019-04-10T05:35:45.052Z,98734.16
2019-04-10T05:38:15.106Z,98736.34
2019-04-10T05:40:45.616Z,98740.13
2019-04-10T05:43:19.963Z,98734.71
2019-04-10T05:45:55.048Z,98739.33
2019-04-10T05:48:26.485Z,98739.06
2019-04-10T05:51:03.059Z,98746.95
2019-04-10T05:53:29.370Z,98736.63
2019-04-10T05:56:01.430Z,98735.54
2019-04-10T05:58:31.992Z,98745.04
2019-04-10T06:01:05.613Z,98734.72
2019-04-10T06:03:36.656Z,98737.70
2019-04-10T06:06:08.295Z,98744.21
2019-04-10T06:08:39.439Z,98738.50
2019-04-10T06:11:10.730Z,98628.53
2019-04-10T06:13:41.246Z,98750.75
2019-04-10T06:16:11.928Z,98746.11
2019-04-10T06:18:47.354Z,98746.13
2019-04-10T06:21:18.833Z,98752.09
2019-04-10T06:23:49.827Z,98747.45
2019-04-10T06:26:21.738Z,98748.27
2019-04-10T06:28:52.769Z,98754.21
2019-04-10T06:31:23.259Z,98752.27
2019-04-10T06:33:53.751Z,98759.31
2019-04-10T06:36:25.109Z,98756.84
2019-04-10T06:38:55.682Z,98754.62
2019-04-10T06:41:26.399Z,98760.59
2019-04-10T06:43:57.240Z,98762.44
2019-04-10T06:46:28.501Z,98760.49
2019-04-10T06:48:59.071Z,98760.44
2019-04-10T06:51:29.765Z,98755.23
2019-04-10T06:54:06.308Z,98761.17
2019-04-10T06:56:33.352Z,98760.61
2019-04-10T06:59:04.553Z,98767.64
2019-04-10T07:01:47.166Z,98764.30
2019-04-10T07:04:08.229Z,98772.46
2019-04-10T07:06:49.868Z,98767.56
2019-04-10T07:09:15.849Z,98769.14
2019-04-10T07:11:47.913Z,98548.06
2019-04-10T07:14:18.702Z,98767.61
2019-04-10T07:16:49.153Z,98774.63
2019-04-10T07:19:19.872Z,98769.84
2019-04-10T07:21:51.237Z,98771.76
2019-04-10T07:24:22.911Z,98769.23
2019-04-10T07:26:53.403Z,98778.41
2019-04-10T07:29:26.737Z,98769.64
2019-04-10T07:31:56.450Z,98782.75
2019-04-10T07:34:29.748Z,98781.23
2019-04-10T07:37:00.122Z,98786.19
2019-04-10T07:39:45.029Z,98788.37
2019-04-10T07:42:29.439Z,98791.03
2019-04-10T07:45:04.780Z,98790.88
2019-04-10T07:47:37.878Z,98794.04
2019-04-10T07:50:14.130Z,98796.98
2019-04-10T07:52:50.045Z,98793.84
2019-04-10T07:55:21.110Z,98801.16
2019-04-10T07:57:53.254Z,98792.59
2019-04-10T08:00:25.294Z,98793.46
2019-04-10T08:02:57.499Z,98791.75
2019-04-10T08:05:28.187Z,98799.09
2019-04-10T08:07:59.060Z,98799.38
2019-04-10T08:10:30.600Z,98797.30
2019-04-10T08:13:02.396Z,98795.50
2019-04-10T08:15:33.660Z,98795.74
2019-04-10T08:18:04.603Z,98798.67
2019-04-10T08:20:35.146Z,98798.48
2019-04-10T08:23:07.512Z,98801.64
2019-04-10T08:25:38.778Z,98796.02
2019-04-10T08:28:09.381Z,98793.53
2019-04-10T08:30:40.063Z,98797.95
2019-04-10T08:33:10.563Z,98793.02
2019-04-10T08:35:41.921Z,98794.58
2019-04-10T08:38:13.103Z,98796.22
2019-04-10T08:40:43.869Z,98759.34
2019-04-10T08:43:14.457Z,98804.97
2019-04-10T08:45:50.024Z,98803.36
2019-04-10T08:48:17.677Z,98799.84
2019-04-10T08:50:48.289Z,98796.63
2019-04-10T08:53:18.781Z,98797.11
2019-04-10T08:55:50.428Z,98802.53
2019-04-10T08:58:20.976Z,98801.20
2019-04-10T09:00:53.034Z,98810.48
2019-04-10T09:03:24.625Z,98796.91
2019-04-10T09:05:55.299Z,98810.04
2019-04-10T09:08:26.655Z,98809.23
2019-04-10T09:10:57.213Z,98808.19
2019-04-10T09:13:28.515Z,98816.95
2019-04-10T09:16:00.340Z,98812.89
2019-04-10T09:18:31.551Z,98821.57
2019-04-10T09:21:02.780Z,98818.16
2019-04-10T09:23:44.396Z,98827.30
2019-04-10T09:26:05.880Z,98825.98
2019-04-10T09:28:36.434Z,98834.01
2019-04-10T09:31:07.489Z,98834.91
2019-04-10T09:33:39.009Z,98832.17
2019-04-10T09:36:09.550Z,98829.42
2019-04-10T09:38:41.023Z,98826.72
2019-04-10T09:41:11.978Z,98820.87
2019-04-10T09:43:42.402Z,98820.39
2019-04-10T09:46:12.984Z,98819.89
2019-04-10T09:48:44.239Z,98822.00
2019-04-10T09:51:17.620Z,98821.33
2019-04-10T09:53:47.229Z,98814.63
2019-04-10T09:56:17.724Z,98815.23
2019-04-10T09:58:49.083Z,98818.00
2019-04-10T10:01:20.176Z,98813.25
2019-04-10T10:03:50.963Z,98814.48
2019-04-10T10:06:27.063Z,98814.59
2019-04-10T10:08:54.320Z,98814.26
2019-04-10T10:11:24.886Z,98820.42
2019-04-10T10:13:56.330Z,98818.60
2019-04-10T10:16:27.494Z,98825.66
2019-04-10T10:18:59.455Z,98823.86
2019-04-10T10:21:30.047Z,98824.94
2019-04-10T10:24:00.521Z,98828.53
2019-04-10T10:26:32.898Z,98826.64
2019-04-10T10:29:03.548Z,98829.57
2019-04-10T10:31:36.003Z,98827.45
2019-04-10T10:34:06.614Z,98831.22
2019-04-10T10:36:42.003Z,98825.17
2019-04-10T10:39:19.003Z,98817.68
2019-04-10T10:41:50.933Z,98822.72
2019-04-10T10:44:21.883Z,98822.25
2019-04-10T10:46:52.676Z,98820.48
2019-04-10T10:49:24.283Z,98825.42
2019-04-10T10:51:55.185Z,98823.08
2019-04-10T10:54:26.849Z,98822.41
2019-04-10T10:56:58.527Z,98821.70
2019-04-10T10:59:29.504Z,98825.08
2019-04-10T11:02:00.258Z,98824.42
2019-04-10T11:04:31.549Z,98825.44
2019-04-10T11:07:02.658Z,98826.13
2019-04-10T11:09:34.076Z,98827.20
2019-04-10T11:12:06.714Z,98824.53
2019-04-10T11:14:37.308Z,98827.72
2019-04-10T11:17:07.806Z,98825.89
2019-04-10T11:19:39.486Z,98831.32
2019-04-10T11:22:12.696Z,98834.56
2019-04-10T11:24:43.389Z,98829.73
2019-04-10T11:27:15.973Z,98829.25
2019-04-10T11:29:46.737Z,98829.72
2019-04-10T11:32:17.629Z,98829.78
2019-04-10T11:34:49.324Z,98826.20
2019-04-10T11:37:30.796Z,98830.69
2019-04-10T11:39:52.111Z,98727.48
2019-04-10T11:42:22.692Z,98823.42
2019-04-10T11:44:54.573Z,98827.29
2019-04-10T11:47:26.750Z,98825.41
2019-04-10T11:49:59.325Z,98828.41
2019-04-10T11:52:36.381Z,98819.91
2019-04-10T11:55:09.953Z,98823.70
2019-04-10T11:57:34.951Z,98821.13
2019-04-10T12:00:11.072Z,98819.93
2019-04-10T12:02:39.738Z,98824.22
2019-04-10T12:05:18.493Z,98816.46
2019-04-10T12:12:49.920Z,98825.03
2019-04-10T12:15:21.505Z,98816.67
2019-04-10T12:17:52.046Z,98819.87
2019-04-10T12:20:22.563Z,98816.46
2019-04-10T12:22:54.594Z,98814.09
2019-04-10T12:25:25.316Z,98817.10
2019-04-10T12:27:55.797Z,98818.29
2019-04-10T12:30:26.993Z,98815.66
2019-04-10T12:32:57.526Z,98817.10
2019-04-10T12:35:28.193Z,98814.27
2019-04-10T12:38:02.836Z,98815.97
2019-04-10T12:40:30.861Z,98819.20
2019-04-10T12:43:01.364Z,98814.38
2019-04-10T12:45:32.641Z,98811.25
2019-04-10T12:48:06.204Z,98815.51
2019-04-10T12:50:39.109Z,98814.93
2019-04-10T12:53:09.704Z,98812.16
2019-04-10T12:55:40.185Z,98811.99
2019-04-10T12:58:17.029Z,98813.10
2019-04-10T13:00:44.608Z,98810.97
2019-04-10T13:03:15.105Z,98812.72
2019-04-10T13:05:45.602Z,98807.16
2019-04-10T13:08:21.661Z,98816.80
2019-04-10T13:10:48.675Z,98808.61
2019-04-10T13:13:19.993Z,98802.73
2019-04-10T13:15:51.798Z,98802.31
2019-04-10T13:18:22.588Z,98801.08
2019-04-10T13:20:53.691Z,98799.47
2019-04-10T13:23:24.646Z,98806.33
2019-04-10T13:25:59.381Z,98798.48
2019-04-10T13:28:27.660Z,98797.98
2019-04-10T13:30:59.513Z,98803.52
2019-04-10T13:33:30.989Z,98804.33
2019-04-10T13:36:01.525Z,98803.66
2019-04-10T13:38:33.972Z,98803.09
2019-04-10T13:41:04.322Z,98691.61
2019-04-10T13:43:35.971Z,98794.85
2019-04-10T13:46:06.796Z,98798.77
2019-04-10T13:48:37.541Z,98786.60
2019-04-10T13:51:08.136Z,98789.98
2019-04-10T13:53:39.889Z,98790.78
2019-04-10T13:56:10.404Z,98792.05
2019-04-10T13:58:40.895Z,98793.72
2019-04-10T14:01:15.479Z,98798.64
2019-04-10T14:03:46.933Z,98793.29
2019-04-10T14:06:17.548Z,98795.42
2019-04-10T14:09:03.159Z,98793.19
2019-04-10T14:11:21.542Z,98791.59
2019-04-10T14:13:52.190Z,98784.19
2019-04-10T14:16:22.737Z,98787.43
2019-04-10T14:18:53.199Z,98789.56
2019-04-10T14:21:23.650Z,98793.29
2019-04-10T14:23:55.532Z,98790.78
2019-04-10T14:26:45.901Z,98787.28
2019-04-10T14:29:14.312Z,98789.00
2019-04-10T14:31:50.962Z,98783.89
2019-04-10T14:34:22.745Z,98675.45
2019-04-10T14:36:53.443Z,98785.18
2019-04-10T14:39:24.428Z,98785.94
2019-04-10T14:41:55.058Z,98786.55
2019-04-10T14:44:25.543Z,98783.63
2019-04-10T14:46:56.163Z,98783.66
2019-04-10T14:49:27.226Z,98781.60
2019-04-10T14:51:58.857Z,98786.67
2019-04-10T14:54:30.116Z,98786.05
2019-04-10T14:57:00.636Z,98787.36
2019-04-10T14:59:31.791Z,98796.28
2019-04-10T15:02:02.482Z,98786.86
2019-04-10T15:04:33.135Z,98788.23
2019-04-10T15:07:03.949Z,98790.43
2019-04-10T15:09:34.684Z,98792.91
2019-04-10T15:12:05.512Z,98797.16
2019-04-10T15:14:36.011Z,98797.52
2019-04-10T15:17:08.010Z,98800.84
2019-04-10T15:19:38.639Z,98803.66
2019-04-10T15:22:09.540Z,98797.03
2019-04-10T15:24:40.035Z,98794.92
2019-04-10T15:27:11.161Z,98802.55
2019-04-10T15:29:42.885Z,98803.33
2019-04-10T15:32:14.578Z,98805.55
2019-04-10T15:34:46.030Z,98810.69
2019-04-10T15:37:17.208Z,98811.82
2019-04-10T15:39:47.658Z,98811.47
2019-04-10T15:42:18.147Z,98814.42
2019-04-10T15:44:48.579Z,98816.62
2019-04-10T15:47:22.557Z,98815.49
2019-04-10T15:49:51.698Z,98816.71
2019-04-10T15:52:22.850Z,98823.70
2019-04-10T15:54:53.946Z,98822.16
2019-04-10T15:57:24.931Z,98824.74
2019-04-10T15:59:56.614Z,98826.91
2019-04-10T16:02:27.947Z,98827.30
2019-04-10T16:04:59.394Z,98827.97
2019-04-10T16:07:30.833Z,98825.93
2019-04-10T16:10:13.391Z,98828.19
2019-04-10T16:12:43.826Z,98827.37
2019-04-10T16:15:15.275Z,98832.08
2019-04-10T16:17:52.574Z,98833.26
2019-04-10T16:20:29.438Z,98829.73
2019-04-10T16:23:29.022Z,98828.98
2019-04-10T16:26:00.840Z,98831.21
2019-04-10T16:28:31.549Z,98826.08
2019-04-10T16:31:02.000Z,98824.77
2019-04-10T16:33:33.544Z,98822.05
2019-04-10T16:36:05.166Z,98830.83
2019-04-10T16:38:36.406Z,98831.68
2019-04-10T16:41:08.120Z,98825.18
2019-04-10T16:43:38.787Z,98826.60
2019-04-10T16:46:09.352Z,98831.85
2019-04-10T16:48:40.069Z,98824.84
2019-04-10T16:51:10.479Z,98830.66
2019-04-10T16:53:41.260Z,98836.52
2019-04-10T16:56:11.965Z,98832.51
2019-04-10T16:58:42.808Z,98833.94
2019-04-10T17:01:14.428Z,98838.94
2019-04-10T17:03:46.252Z,98831.63
2019-04-10T17:06:17.821Z,98843.72
2019-04-10T17:08:48.305Z,98848.47
2019-04-10T17:11:19.002Z,98853.95
2019-04-10T17:13:50.693Z,98859.75
2019-04-10T17:16:21.824Z,98860.45
2019-04-10T17:18:52.368Z,98866.53
2019-04-10T17:21:22.853Z,98864.47
2019-04-10T17:23:53.445Z,98869.78
2019-04-10T17:26:24.716Z,98874.08
2019-04-10T17:28:55.268Z,98868.41
2019-04-10T17:31:26.636Z,98872.30
2019-04-10T17:33:58.590Z,98869.69
2019-04-10T17:36:29.368Z,98875.02
2019-04-10T17:39:00.825Z,98875.33
2019-04-10T17:41:31.461Z,98878.94
2019-04-10T17:44:02.803Z,98874.13
2019-04-10T17:46:33.526Z,98877.45
2019-04-10T17:49:05.262Z,98881.36
2019-04-10T17:51:36.335Z,98889.83
2019-04-10T17:54:07.073Z,98889.33
2019-04-10T17:56:38.159Z,98886.38
2019-04-10T17:59:09.845Z,98891.13
2019-04-10T18:01:41.131Z,98885.24
2019-04-10T18:04:11.715Z,98890.40
2019-04-10T18:06:44.550Z,98895.91
2019-04-10T18:09:14.374Z,98892.95
2019-04-10T18:11:45.665Z,98907.41
2019-04-10T18:14:17.386Z,98903.63
2019-04-10T18:16:47.963Z,98908.02
2019-04-10T18:19:19.124Z,98913.53
2019-04-10T18:21:49.963Z,98916.30
2019-04-10T18:24:20.391Z,98917.14
2019-04-10T18:26:53.433Z,98919.34
2019-04-10T18:29:23.300Z,98920.17
2019-04-10T18:31:53.997Z,98919.63
2019-04-10T18:34:24.931Z,98932.51
2019-04-10T18:36:56.483Z,98936.88
2019-04-10T18:39:26.979Z,98934.69
2019-04-10T18:41:59.438Z,98924.86
2019-04-10T18:44:29.651Z,98938.78
2019-04-10T18:47:00.698Z,98942.59
2019-04-10T18:49:31.640Z,98943.70
2019-04-10T18:52:03.206Z,98945.89
2019-04-10T18:54:34.076Z,98947.28
2019-04-10T18:57:05.398Z,98945.92
2019-04-10T18:59:42.779Z,98954.34
2019-04-10T19:02:45.303Z,98959.80
2019-04-10T19:05:19.487Z,98957.08
2019-04-10T19:07:50.300Z,98961.43
2019-04-10T19:10:22.063Z,98976.67
2019-04-10T19:12:52.839Z,98970.17
2019-04-10T19:15:24.393Z,98970.19
2019-04-10T19:17:55.251Z,98961.48
2019-04-10T19:20:26.763Z,98968.55
2019-04-10T19:22:57.257Z,98965.02
2019-04-10T19:25:28.000Z,98961.48
2019-04-10T19:27:58.448Z,98965.00
2019-04-10T19:30:41.451Z,98965.83
2019-04-10T19:33:12.233Z,98962.56
2019-04-10T19:35:43.421Z,98968.55
2019-04-10T19:38:14.065Z,98964.20
2019-04-10T19:40:45.739Z,98960.41
2019-04-10T19:43:16.323Z,98972.64
2019-04-10T19:45:48.027Z,98969.11
2019-04-10T19:48:21.571Z,98966.66
2019-04-10T19:50:52.060Z,98962.86
2019-04-10T19:53:22.494Z,98964.20
2019-04-10T19:55:53.898Z,98958.78
2019-04-10T19:58:24.590Z,98960.97
2019-04-10T20:00:55.330Z,98957.15
2019-04-10T20:03:25.825Z,98953.89
2019-04-10T20:05:56.291Z,98951.96
2019-04-10T20:08:27.881Z,98947.08
2019-04-10T20:10:58.496Z,98953.05
2019-04-10T20:13:28.971Z,98943.78
2019-04-10T20:16:00.681Z,98943.79
2019-04-10T20:18:31.240Z,98947.34
2019-04-10T20:21:01.883Z,98949.80
2019-04-10T20:23:32.443Z,98945.96
2019-04-10T20:26:03.364Z,98944.06
2019-04-10T20:28:33.865Z,98945.70
2019-04-10T20:31:04.887Z,98949.23
2019-04-10T20:33:35.354Z,98951.17
2019-04-10T20:36:06.802Z,98950.06
2019-04-10T20:38:37.318Z,98950.07
2019-04-10T20:41:08.677Z,98951.44
2019-04-10T20:43:39.400Z,98950.09
2019-04-10T20:46:09.951Z,98951.70
2019-04-10T20:48:40.433Z,98952.80
2019-04-10T20:51:10.933Z,98951.98
2019-04-10T20:53:42.231Z,98962.33
2019-04-10T20:56:15.457Z,98971.86
2019-04-10T20:58:44.917Z,98963.70
2019-04-10T21:01:15.420Z,98964.48
2019-04-10T21:03:45.902Z,98958.78
2019-04-10T21:06:17.518Z,98964.23
2019-04-10T21:08:48.087Z,98953.08
2019-04-10T21:11:18.536Z,98960.41
2019-04-10T21:13:49.104Z,98960.95
2019-04-10T21:16:19.809Z,98960.67
2019-04-10T21:18:50.313Z,98966.93
2019-04-10T21:21:20.767Z,98964.77
2019-04-10T21:23:52.115Z,98961.20
2019-04-10T21:26:22.667Z,98961.21
2019-04-10T21:28:53.722Z,98965.02
2019-04-10T21:31:42.719Z,98967.76
2019-04-10T21:34:20.113Z,98971.83
2019-04-10T21:36:51.208Z,98967.74
2019-04-10T21:39:21.750Z,98974.83
2019-04-10T21:41:52.199Z,98967.76
2019-04-10T21:44:22.643Z,98972.67
2019-04-10T21:46:53.147Z,98972.11
2019-04-10T21:49:24.016Z,98971.01
2019-04-10T21:51:55.710Z,98969.39
2019-04-10T21:54:27.019Z,98972.10
2019-04-10T21:56:57.707Z,98974.28
2019-04-10T21:59:29.003Z,98978.66
2019-04-10T22:01:59.558Z,98987.09
2019-04-10T22:04:30.886Z,98987.09
2019-04-10T22:07:20.303Z,98990.36
2019-04-10T22:10:21.740Z,98988.71
2019-04-10T22:12:52.835Z,98989.00
2019-04-10T22:15:44.818Z,98985.71
2019-04-10T22:18:15.432Z,98988.16
2019-04-10T22:20:45.932Z,98989.76
2019-04-10T22:23:16.391Z,98978.64
2019-04-10T22:25:47.872Z,98980.52
2019-04-10T22:28:19.049Z,98984.61
2019-04-10T22:30:50.573Z,98983.23
2019-04-10T22:33:22.263Z,98982.16
2019-04-10T22:35:52.797Z,98979.72
2019-04-10T22:38:23.253Z,98970.20
2019-04-10T22:40:53.935Z,98978.62
2019-04-10T22:43:24.597Z,98981.63
2019-04-10T22:45:55.328Z,98978.35
2019-04-10T22:48:25.825Z,98981.36
2019-04-10T22:50:56.275Z,98979.73
2019-04-10T22:53:26.864Z,98973.47
2019-04-10T22:55:58.444Z,98974.00
2019-04-10T22:58:28.936Z,98973.73
2019-04-10T23:00:59.405Z,98974.58
2019-04-10T23:03:30.198Z,98974.28
2019-04-10T23:06:00.734Z,98971.30
2019-04-10T23:08:31.644Z,98967.77
2019-04-10T23:11:02.173Z,98972.37
2019-04-10T23:13:32.652Z,98977.28
2019-04-10T23:16:04.089Z,98979.17
2019-04-10T23:18:34.623Z,98982.17
2019-04-10T23:21:06.110Z,98978.64
2019-04-10T23:23:36.638Z,98983.27
2019-04-10T23:26:07.083Z,98972.37
2019-04-10T23:28:37.855Z,98972.37
2019-04-10T23:31:08.424Z,98973.73
2019-04-10T23:33:39.972Z,98975.64
2019-04-10T23:36:10.405Z,98970.75
2019-04-10T23:38:41.779Z,98972.11
2019-04-10T23:41:12.223Z,98966.93
2019-04-10T23:43:43.942Z,98964.75
2019-04-10T23:46:14.619Z,98971.85
2019-04-10T23:48:45.105Z,98968.84
2019-04-10T23:51:15.752Z,98963.14
2019-04-10T23:53:46.914Z,98968.58
2019-04-10T23:56:17.761Z,98962.33
2019-04-10T23:58:49.183Z,98962.59
